createdAt,value
2018-01-13T00:00:57.984Z,1009.36
2018-01-13T00:01:57.972Z,1009.39
2018-01-13T00:02:57.964Z,1009.34
2018-01-13T00:03:57.946Z,1009.36
2018-01-13T00:04:57.933Z,1009.37
2018-01-13T00:05:57.922Z,1009.35
2018-01-13T00:06:57.908Z,1009.32
2018-01-13T00:07:57.911Z,1009.36
2018-01-13T00:08:57.883Z,1009.30
2018-01-13T00:09:57.873Z,1009.33
2018-01-13T00:10:57.857Z,1009.30
2018-01-13T00:11:57.845Z,1009.27
2018-01-13T00:12:57.833Z,1009.29
2018-01-13T00:13:57.820Z,1009.23
2018-01-13T00:14:57.807Z,1009.24
2018-01-13T00:15:57.798Z,1009.23
2018-01-13T00:16:57.781Z,1009.20
2018-01-13T00:17:57.771Z,1009.17
2018-01-13T00:18:57.758Z,1009.17
2018-01-13T00:19:57.744Z,1009.14
2018-01-13T00:20:57.732Z,1009.15
2018-01-13T00:21:57.719Z,1009.12
2018-01-13T00:22:57.707Z,1009.13
2018-01-13T00:23:57.694Z,1009.12
2018-01-13T00:24:57.681Z,1009.13
2018-01-13T00:25:57.668Z,1009.20
2018-01-13T00:26:57.655Z,1009.13
2018-01-13T00:27:57.643Z,1009.17
2018-01-13T00:28:57.630Z,1009.15
2018-01-13T00:29:57.616Z,1009.15
2018-01-13T00:30:57.603Z,1009.14
2018-01-13T00:31:57.590Z,1009.14
2018-01-13T00:32:57.578Z,1009.12
2018-01-13T00:33:57.566Z,1009.14
2018-01-13T00:34:57.552Z,1009.11
2018-01-13T00:35:57.540Z,1009.08
2018-01-13T00:36:57.527Z,1009.07
2018-01-13T00:37:57.515Z,1009.06
2018-01-13T00:38:57.504Z,1009.10
2018-01-13T00:39:57.488Z,1009.08
2018-01-13T00:40:57.475Z,1009.04
2018-01-13T00:41:57.462Z,1009.04
2018-01-13T00:42:57.450Z,1009.04
2018-01-13T00:43:57.437Z,1009.04
2018-01-13T00:44:57.424Z,1009.07
2018-01-13T00:45:57.414Z,1009.08
2018-01-13T00:46:57.397Z,1009.08
2018-01-13T00:47:57.385Z,1009.06
2018-01-13T00:48:57.372Z,1009.03
2018-01-13T00:49:57.359Z,1009.06
2018-01-13T00:50:57.345Z,1009.06
2018-01-13T00:51:57.332Z,1009.09
2018-01-13T00:52:57.321Z,1009.06
2018-01-13T00:53:57.308Z,1009.07
2018-01-13T00:54:57.294Z,1009.09
2018-01-13T00:55:57.281Z,1009.10
2018-01-13T00:56:57.272Z,1009.11
2018-01-13T00:57:57.256Z,1009.10
2018-01-13T00:58:57.243Z,1009.08
2018-01-13T00:59:57.230Z,1009.08
2018-01-13T01:00:57.218Z,1009.07
2018-01-13T01:01:57.205Z,1009.11
2018-01-13T01:02:57.195Z,1009.09
2018-01-13T01:03:57.181Z,1009.07
2018-01-13T01:04:57.168Z,1009.03
2018-01-13T01:05:57.255Z,1009.04
2018-01-13T01:06:57.142Z,1009.05
2018-01-13T01:07:57.131Z,1009.03
2018-01-13T01:08:57.118Z,1009.01
2018-01-13T01:09:57.105Z,1009.00
2018-01-13T01:10:57.092Z,1008.98
2018-01-13T01:11:57.079Z,1009.02
2018-01-13T01:12:57.067Z,1008.97
2018-01-13T01:13:57.056Z,1008.99
2018-01-13T01:14:57.041Z,1008.98
2018-01-13T01:15:57.029Z,1008.96
2018-01-13T01:16:57.117Z,1008.95
2018-01-13T01:17:57.004Z,1008.97
2018-01-13T01:18:56.999Z,1008.96
2018-01-13T01:19:56.979Z,1008.94
2018-01-13T01:20:56.966Z,1009.01
2018-01-13T01:21:56.954Z,1008.97
2018-01-13T01:22:56.940Z,1008.95
2018-01-13T01:23:56.943Z,1008.97
2018-01-13T01:24:56.916Z,1008.92
2018-01-13T01:25:56.902Z,1008.93
2018-01-13T01:26:56.889Z,1008.94
2018-01-13T01:27:56.876Z,1008.91
2018-01-13T01:28:56.864Z,1008.91
2018-01-13T01:29:56.852Z,1008.87
2018-01-13T01:30:56.838Z,1008.96
2018-01-13T01:31:56.825Z,1008.95
2018-01-13T01:32:56.813Z,1008.95
2018-01-13T01:33:56.801Z,1008.99
2018-01-13T01:34:56.788Z,1008.96
2018-01-13T01:35:56.775Z,1008.97
2018-01-13T01:36:56.763Z,1008.95
2018-01-13T01:37:56.750Z,1008.94
2018-01-13T01:38:56.838Z,1008.92
2018-01-13T01:39:56.724Z,1008.92
2018-01-13T01:40:56.716Z,1008.91
2018-01-13T01:41:56.700Z,1008.88
2018-01-13T01:42:56.686Z,1008.87
2018-01-13T01:43:56.675Z,1008.86
2018-01-13T01:44:56.662Z,1008.88
2018-01-13T01:45:56.649Z,1008.82
2018-01-13T01:46:56.635Z,1008.82
2018-01-13T01:47:56.623Z,1008.83
2018-01-13T01:48:56.612Z,1008.83
2018-01-13T01:49:56.608Z,1008.84
2018-01-13T01:50:56.585Z,1008.85
2018-01-13T01:51:56.573Z,1008.86
2018-01-13T01:52:56.567Z,1008.82
2018-01-13T01:53:56.549Z,1008.87
2018-01-13T01:54:56.536Z,1008.86
2018-01-13T01:55:56.522Z,1008.87
2018-01-13T01:56:56.564Z,1008.86
2018-01-13T01:57:56.498Z,1008.84
2018-01-13T01:58:56.485Z,1008.82
2018-01-13T01:59:56.472Z,1008.80
2018-01-13T02:00:56.459Z,1008.78
2018-01-13T02:01:56.446Z,1008.75
2018-01-13T02:02:56.433Z,1008.78
2018-01-13T02:03:56.421Z,1008.73
2018-01-13T02:04:56.408Z,1008.79
2018-01-13T02:05:56.395Z,1008.77
2018-01-13T02:06:56.381Z,1008.75
2018-01-13T02:07:56.370Z,1008.76
2018-01-13T02:08:56.358Z,1008.73
2018-01-13T02:09:56.345Z,1008.81
2018-01-13T02:10:56.331Z,1008.79
2018-01-13T02:11:56.319Z,1008.77
2018-01-13T02:12:56.358Z,1008.79
2018-01-13T02:13:56.294Z,1008.79
2018-01-13T02:14:56.283Z,1008.82
2018-01-13T02:15:56.267Z,1008.78
2018-01-13T02:16:56.254Z,1008.81
2018-01-13T02:17:56.243Z,1008.80
2018-01-13T02:18:56.229Z,1008.79
2018-01-13T02:19:56.218Z,1008.82
2018-01-13T02:20:56.204Z,1008.82
2018-01-13T02:21:56.190Z,1008.80
2018-01-13T02:22:56.177Z,1008.84
2018-01-13T02:23:56.163Z,1008.83
2018-01-13T02:24:56.159Z,1008.79
2018-01-13T02:25:56.139Z,1008.81
2018-01-13T02:26:56.125Z,1008.82
2018-01-13T02:27:56.112Z,1008.86
2018-01-13T02:28:56.101Z,1008.83
2018-01-13T02:29:56.088Z,1008.83
2018-01-13T02:30:56.074Z,1008.80
2018-01-13T02:31:56.067Z,1008.79
2018-01-13T02:32:56.048Z,1008.78
2018-01-13T02:33:56.035Z,1008.81
2018-01-13T02:34:56.022Z,1008.79
2018-01-13T02:35:56.009Z,1008.80
2018-01-13T02:36:55.997Z,1008.78
2018-01-13T02:37:55.983Z,1008.75
2018-01-13T02:38:55.969Z,1008.71
2018-01-13T02:39:55.956Z,1008.70
2018-01-13T02:40:55.952Z,1008.69
2018-01-13T02:41:55.930Z,1008.73
2018-01-13T02:42:55.918Z,1008.68
2018-01-13T02:43:55.903Z,1008.67
2018-01-13T02:44:55.892Z,1008.70
2018-01-13T02:45:55.878Z,1008.68
2018-01-13T02:46:55.865Z,1008.65
2018-01-13T02:47:55.851Z,1008.64
2018-01-13T02:48:55.838Z,1008.67
2018-01-13T02:49:55.830Z,1008.66
2018-01-13T02:50:55.913Z,1008.65
2018-01-13T02:51:55.801Z,1008.65
2018-01-13T02:52:55.785Z,1008.61
2018-01-13T02:53:55.772Z,1008.63
2018-01-13T02:54:55.759Z,1008.65
2018-01-13T02:55:55.746Z,1008.63
2018-01-13T02:56:55.734Z,1008.66
2018-01-13T02:57:55.720Z,1008.63
2018-01-13T02:58:55.706Z,1008.57
2018-01-13T02:59:55.693Z,1008.56
2018-01-13T03:00:55.681Z,1008.59
2018-01-13T03:01:55.668Z,1008.53
2018-01-13T03:02:55.653Z,1008.62
2018-01-13T03:03:55.640Z,1008.59
2018-01-13T03:04:55.627Z,1008.58
2018-01-13T03:05:55.614Z,1008.59
2018-01-13T03:06:55.601Z,1008.57
2018-01-13T03:07:55.587Z,1008.56
2018-01-13T03:08:55.574Z,1008.56
2018-01-13T03:09:55.561Z,1008.57
2018-01-13T03:10:55.548Z,1008.56
2018-01-13T03:11:55.535Z,1008.55
2018-01-13T03:12:55.521Z,1008.48
2018-01-13T03:13:55.507Z,1008.54
2018-01-13T03:14:55.493Z,1008.52
2018-01-13T03:15:55.481Z,1008.50
2018-01-13T03:16:55.468Z,1008.50
2018-01-13T03:17:55.453Z,1008.50
2018-01-13T03:18:55.439Z,1008.51
2018-01-13T03:19:55.427Z,1008.47
2018-01-13T03:20:55.415Z,1008.45
2018-01-13T03:21:55.401Z,1008.46
2018-01-13T03:22:55.388Z,1008.48
2018-01-13T03:23:55.378Z,1008.45
2018-01-13T03:24:55.360Z,1008.44
2018-01-13T03:25:55.347Z,1008.43
2018-01-13T03:26:55.334Z,1008.42
2018-01-13T03:27:55.320Z,1008.42
2018-01-13T03:28:55.306Z,1008.43
2018-01-13T03:29:55.292Z,1008.42
2018-01-13T03:30:55.282Z,1008.43
2018-01-13T03:31:55.266Z,1008.44
2018-01-13T03:32:55.253Z,1008.42
2018-01-13T03:33:55.239Z,1008.45
2018-01-13T03:34:55.224Z,1008.42
2018-01-13T03:35:55.211Z,1008.37
2018-01-13T03:36:55.198Z,1008.34
2018-01-13T03:37:55.185Z,1008.35
2018-01-13T03:38:55.170Z,1008.34
2018-01-13T03:39:55.156Z,1008.35
2018-01-13T03:40:55.143Z,1008.31
2018-01-13T03:41:55.138Z,1008.37
2018-01-13T03:42:55.116Z,1008.42
2018-01-13T03:43:55.101Z,1008.35
2018-01-13T03:44:55.088Z,1008.40
2018-01-13T03:45:55.075Z,1008.38
2018-01-13T03:46:55.060Z,1008.41
2018-01-13T03:47:55.047Z,1008.42
2018-01-13T03:48:55.033Z,1008.39
2018-01-13T03:49:55.020Z,1008.33
2018-01-13T03:50:55.009Z,1008.33
2018-01-13T03:51:54.992Z,1008.36
2018-01-13T03:52:54.986Z,1008.35
2018-01-13T03:53:54.964Z,1008.38
2018-01-13T03:54:54.951Z,1008.38
2018-01-13T03:55:54.936Z,1008.36
2018-01-13T03:56:54.923Z,1008.34
2018-01-13T03:57:54.919Z,1008.33
2018-01-13T03:58:54.895Z,1008.30
2018-01-13T03:59:54.881Z,1008.30
2018-01-13T04:00:54.868Z,1008.25
2018-01-13T04:01:54.854Z,1008.30
2018-01-13T04:02:54.840Z,1008.23
2018-01-13T04:03:54.826Z,1008.25
2018-01-13T04:04:54.812Z,1008.19
2018-01-13T04:05:54.800Z,1008.24
2018-01-13T04:06:54.785Z,1008.25
2018-01-13T04:07:54.771Z,1008.24
2018-01-13T04:08:54.757Z,1008.18
2018-01-13T04:09:54.743Z,1008.18
2018-01-13T04:10:54.729Z,1008.20
2018-01-13T04:11:54.716Z,1008.19
2018-01-13T04:12:54.703Z,1008.18
2018-01-13T04:13:54.689Z,1008.20
2018-01-13T04:14:54.674Z,1008.16
2018-01-13T04:15:54.661Z,1008.14
2018-01-13T04:16:54.648Z,1008.10
2018-01-13T04:17:54.635Z,1008.09
2018-01-13T04:18:54.622Z,1008.08
2018-01-13T04:19:54.606Z,1008.09
2018-01-13T04:20:54.592Z,1008.07
2018-01-13T04:21:54.579Z,1008.09
2018-01-13T04:22:54.565Z,1008.11
2018-01-13T04:23:54.552Z,1008.05
2018-01-13T04:24:54.538Z,1008.04
2018-01-13T04:25:54.525Z,1008.05
2018-01-13T04:26:54.511Z,1008.07
2018-01-13T04:27:54.499Z,1008.04
2018-01-13T04:28:54.485Z,1008.05
2018-01-13T04:29:54.471Z,1008.09
2018-01-13T04:30:54.457Z,1008.07
2018-01-13T04:31:54.444Z,1008.07
2018-01-13T04:32:54.432Z,1008.09
2018-01-13T04:33:54.419Z,1008.05
2018-01-13T04:34:54.403Z,1008.05
2018-01-13T04:35:54.390Z,1008.08
2018-01-13T04:36:54.377Z,1008.03
2018-01-13T04:37:54.365Z,1008.02
2018-01-13T04:38:54.351Z,1008.02
2018-01-13T04:39:54.337Z,1008.00
2018-01-13T04:40:54.324Z,1007.98
2018-01-13T04:41:54.310Z,1007.98
2018-01-13T04:42:54.299Z,1008.00
2018-01-13T04:43:54.285Z,1008.00
2018-01-13T04:44:54.270Z,1008.00
2018-01-13T04:45:54.258Z,1008.01
2018-01-13T04:46:54.244Z,1008.00
2018-01-13T04:47:54.232Z,1007.98
2018-01-13T04:48:54.219Z,1007.97
2018-01-13T04:49:54.206Z,1007.99
2018-01-13T04:50:54.192Z,1007.99
2018-01-13T04:51:54.178Z,1007.96
2018-01-13T04:52:54.165Z,1007.95
2018-01-13T04:53:54.153Z,1007.95
2018-01-13T04:54:54.139Z,1007.97
2018-01-13T04:55:54.125Z,1007.94
2018-01-13T04:56:54.112Z,1007.90
2018-01-13T04:57:54.099Z,1007.93
2018-01-13T04:58:54.093Z,1007.88
2018-01-13T04:59:54.072Z,1007.90
2018-01-13T05:00:54.059Z,1007.91
2018-01-13T05:01:54.046Z,1007.90
2018-01-13T05:02:54.032Z,1007.88
2018-01-13T05:03:54.019Z,1007.89
2018-01-13T05:04:54.005Z,1007.89
2018-01-13T05:05:53.993Z,1007.86
2018-01-13T05:06:53.983Z,1007.87
2018-01-13T05:07:53.965Z,1007.87
2018-01-13T05:08:53.952Z,1007.91
2018-01-13T05:09:53.939Z,1007.84
2018-01-13T05:10:53.925Z,1007.88
2018-01-13T05:11:53.911Z,1007.86
2018-01-13T05:12:53.920Z,1007.84
2018-01-13T05:13:53.884Z,1007.80
2018-01-13T05:14:53.871Z,1007.80
2018-01-13T05:15:53.871Z,1007.80
2018-01-13T05:16:53.843Z,1007.79
2018-01-13T05:17:53.835Z,1007.79
2018-01-13T05:18:53.815Z,1007.76
2018-01-13T05:19:53.802Z,1007.80
2018-01-13T05:20:53.796Z,1007.80
2018-01-13T05:21:53.775Z,1007.81
2018-01-13T05:22:53.761Z,1007.83
2018-01-13T05:23:53.747Z,1007.80
2018-01-13T05:24:53.733Z,1007.79
2018-01-13T05:25:53.721Z,1007.80
2018-01-13T05:26:53.706Z,1007.78
2018-01-13T05:27:53.692Z,1007.75
2018-01-13T05:28:53.678Z,1007.74
2018-01-13T05:29:53.665Z,1007.74
2018-01-13T05:30:53.651Z,1007.74
2018-01-13T05:31:53.637Z,1007.71
2018-01-13T05:32:53.623Z,1007.73
2018-01-13T05:33:53.610Z,1007.72
2018-01-13T05:34:53.595Z,1007.73
2018-01-13T05:35:53.582Z,1007.69
2018-01-13T05:36:53.568Z,1007.71
2018-01-13T05:37:53.554Z,1007.71
2018-01-13T05:38:53.540Z,1007.68
2018-01-13T05:39:53.526Z,1007.66
2018-01-13T05:40:53.513Z,1007.68
2018-01-13T05:41:53.499Z,1007.67
2018-01-13T05:42:53.515Z,1007.69
2018-01-13T05:43:53.472Z,1007.70
2018-01-13T05:44:53.456Z,1007.68
2018-01-13T05:45:53.447Z,1007.66
2018-01-13T05:46:53.428Z,1007.67
2018-01-13T05:47:53.415Z,1007.69
2018-01-13T05:48:53.401Z,1007.66
2018-01-13T05:49:53.388Z,1007.68
2018-01-13T05:50:53.373Z,1007.68
2018-01-13T05:51:53.360Z,1007.65
2018-01-13T05:52:53.345Z,1007.65
2018-01-13T05:53:53.331Z,1007.67
2018-01-13T05:54:53.316Z,1007.66
2018-01-13T05:55:53.303Z,1007.67
2018-01-13T05:56:53.297Z,1007.65
2018-01-13T05:57:53.275Z,1007.68
2018-01-13T05:58:53.260Z,1007.66
2018-01-13T05:59:53.245Z,1007.61
2018-01-13T06:00:53.231Z,1007.66
2018-01-13T06:01:53.228Z,1007.65
2018-01-13T06:02:53.204Z,1007.65
2018-01-13T06:03:53.189Z,1007.64
2018-01-13T06:04:53.176Z,1007.66
2018-01-13T06:05:53.161Z,1007.63
2018-01-13T06:06:53.148Z,1007.64
2018-01-13T06:07:53.134Z,1007.63
2018-01-13T06:08:53.119Z,1007.66
2018-01-13T06:09:53.105Z,1007.63
2018-01-13T06:10:53.089Z,1007.61
2018-01-13T06:11:53.080Z,1007.62
2018-01-13T06:12:53.062Z,1007.66
2018-01-13T06:13:53.048Z,1007.61
2018-01-13T06:14:53.033Z,1007.65
2018-01-13T06:15:53.019Z,1007.63
2018-01-13T06:16:53.005Z,1007.63
2018-01-13T06:17:53.006Z,1007.64
2018-01-13T06:18:52.977Z,1007.62
2018-01-13T06:19:52.961Z,1007.61
2018-01-13T06:20:52.947Z,1007.63
2018-01-13T06:21:52.983Z,1007.61
2018-01-13T06:22:52.919Z,1007.61
2018-01-13T06:23:52.907Z,1007.62
2018-01-13T06:24:52.890Z,1007.63
2018-01-13T06:25:52.876Z,1007.60
2018-01-13T06:26:52.861Z,1007.58
2018-01-13T06:27:52.848Z,1007.61
2018-01-13T06:28:52.836Z,1007.60
2018-01-13T06:29:52.820Z,1007.60
2018-01-13T06:30:52.804Z,1007.60
2018-01-13T06:31:52.790Z,1007.63
2018-01-13T06:32:52.778Z,1007.62
2018-01-13T06:33:52.763Z,1007.62
2018-01-13T06:34:52.747Z,1007.62
2018-01-13T06:35:52.733Z,1007.63
2018-01-13T06:36:52.720Z,1007.64
2018-01-13T06:37:52.708Z,1007.60
2018-01-13T06:38:52.692Z,1007.56
2018-01-13T06:39:52.678Z,1007.53
2018-01-13T06:40:52.664Z,1007.55
2018-01-13T06:41:52.650Z,1007.56
2018-01-13T06:42:52.637Z,1007.55
2018-01-13T06:43:52.626Z,1007.51
2018-01-13T06:44:52.609Z,1007.52
2018-01-13T06:45:52.596Z,1007.51
2018-01-13T06:46:52.580Z,1007.47
2018-01-13T06:47:52.568Z,1007.49
2018-01-13T06:48:52.554Z,1007.47
2018-01-13T06:49:52.539Z,1007.50
2018-01-13T06:50:52.525Z,1007.50
2018-01-13T06:51:52.512Z,1007.46
2018-01-13T06:52:52.499Z,1007.48
2018-01-13T06:53:52.486Z,1007.46
2018-01-13T06:54:52.470Z,1007.45
2018-01-13T06:55:52.458Z,1007.44
2018-01-13T06:56:52.443Z,1007.46
2018-01-13T06:57:52.431Z,1007.47
2018-01-13T06:58:52.417Z,1007.46
2018-01-13T06:59:52.403Z,1007.44
2018-01-13T07:00:52.390Z,1007.42
2018-01-13T07:01:52.378Z,1007.43
2018-01-13T07:02:52.363Z,1007.42
2018-01-13T07:03:52.350Z,1007.47
2018-01-13T07:04:52.336Z,1007.45
2018-01-13T07:05:52.323Z,1007.45
2018-01-13T07:06:52.309Z,1007.43
2018-01-13T07:07:52.297Z,1007.45
2018-01-13T07:08:52.285Z,1007.44
2018-01-13T07:09:52.270Z,1007.46
2018-01-13T07:10:52.257Z,1007.44
2018-01-13T07:11:52.243Z,1007.43
2018-01-13T07:12:52.231Z,1007.44
2018-01-13T07:13:52.218Z,1007.43
2018-01-13T07:14:52.204Z,1007.45
2018-01-13T07:15:52.191Z,1007.47
2018-01-13T07:16:52.178Z,1007.45
2018-01-13T07:17:52.166Z,1007.44
2018-01-13T07:18:52.160Z,1007.45
2018-01-13T07:19:52.139Z,1007.43
2018-01-13T07:20:52.125Z,1007.43
2018-01-13T07:21:52.112Z,1007.41
2018-01-13T07:22:52.098Z,1007.40
2018-01-13T07:23:52.087Z,1007.39
2018-01-13T07:24:52.083Z,1007.45
2018-01-13T07:25:52.059Z,1007.44
2018-01-13T07:26:52.046Z,1007.46
2018-01-13T07:27:52.032Z,1007.45
2018-01-13T07:28:52.020Z,1007.44
2018-01-13T07:29:52.007Z,1007.46
2018-01-13T07:30:52.001Z,1007.45
2018-01-13T07:31:51.980Z,1007.44
2018-01-13T07:32:51.967Z,1007.39
2018-01-13T07:33:51.954Z,1007.42
2018-01-13T07:34:51.946Z,1007.43
2018-01-13T07:35:51.942Z,1007.46
2018-01-13T07:36:51.914Z,1007.43
2018-01-13T07:37:51.904Z,1007.41
2018-01-13T07:38:51.887Z,1007.45
2018-01-13T07:39:51.874Z,1007.41
2018-01-13T07:40:51.862Z,1007.43
2018-01-13T07:41:51.848Z,1007.45
2018-01-13T07:42:51.834Z,1007.45
2018-01-13T07:43:51.821Z,1007.43
2018-01-13T07:44:51.809Z,1007.44
2018-01-13T07:45:51.797Z,1007.46
2018-01-13T07:46:51.786Z,1007.45
2018-01-13T07:47:51.770Z,1007.47
2018-01-13T07:48:51.757Z,1007.45
2018-01-13T07:49:51.744Z,1007.42
2018-01-13T07:50:51.731Z,1007.44
2018-01-13T07:51:51.718Z,1007.39
2018-01-13T07:52:51.704Z,1007.44
2018-01-13T07:53:51.692Z,1007.44
2018-01-13T07:54:51.678Z,1007.45
2018-01-13T07:55:51.669Z,1007.48
2018-01-13T07:56:51.653Z,1007.42
2018-01-13T07:57:51.640Z,1007.40
2018-01-13T07:58:51.626Z,1007.42
2018-01-13T07:59:51.613Z,1007.39
2018-01-13T08:00:51.601Z,1007.48
2018-01-13T08:01:51.590Z,1007.48
2018-01-13T08:02:51.576Z,1007.45
2018-01-13T08:03:51.561Z,1007.50
2018-01-13T08:04:51.549Z,1007.53
2018-01-13T08:05:51.537Z,1007.54
2018-01-13T08:06:51.523Z,1007.55
2018-01-13T08:07:51.510Z,1007.56
2018-01-13T08:08:51.497Z,1007.57
2018-01-13T08:09:51.485Z,1007.60
2018-01-13T08:10:51.471Z,1007.60
2018-01-13T08:11:51.458Z,1007.62
2018-01-13T08:12:51.445Z,1007.61
2018-01-13T08:13:51.433Z,1007.59
2018-01-13T08:14:51.419Z,1007.59
2018-01-13T08:15:51.407Z,1007.61
2018-01-13T08:16:51.394Z,1007.62
2018-01-13T08:17:51.381Z,1007.63
2018-01-13T08:18:51.367Z,1007.63
2018-01-13T08:19:51.455Z,1007.67
2018-01-13T08:20:51.344Z,1007.69
2018-01-13T08:21:51.338Z,1007.69
2018-01-13T08:22:51.315Z,1007.64
2018-01-13T08:23:51.303Z,1007.73
2018-01-13T08:24:51.291Z,1007.70
2018-01-13T08:25:51.278Z,1007.70
2018-01-13T08:26:51.266Z,1007.73
2018-01-13T08:27:51.253Z,1007.76
2018-01-13T08:28:51.240Z,1007.75
2018-01-13T08:29:51.227Z,1007.78
2018-01-13T08:30:51.214Z,1007.78
2018-01-13T08:31:51.302Z,1007.82
2018-01-13T08:32:51.196Z,1007.80
2018-01-13T08:33:51.176Z,1007.88
2018-01-13T08:34:51.164Z,1007.87
2018-01-13T08:35:51.151Z,1007.86
2018-01-13T08:36:51.138Z,1007.87
2018-01-13T08:37:51.136Z,1007.88
2018-01-13T08:38:51.113Z,1007.89
2018-01-13T08:39:51.101Z,1007.92
2018-01-13T08:40:51.087Z,1007.92
2018-01-13T08:41:51.075Z,1007.90
2018-01-13T08:42:51.062Z,1007.89
2018-01-13T08:43:51.050Z,1007.89
2018-01-13T08:44:51.037Z,1007.90
2018-01-13T08:45:51.026Z,1007.90
2018-01-13T08:46:51.011Z,1007.92
2018-01-13T08:47:50.999Z,1007.89
2018-01-13T08:48:50.996Z,1007.89
2018-01-13T08:49:50.975Z,1007.88
2018-01-13T08:50:50.961Z,1007.87
2018-01-13T08:51:50.948Z,1007.90
2018-01-13T08:52:50.936Z,1007.88
2018-01-13T08:53:50.932Z,1007.92
2018-01-13T08:54:50.910Z,1007.94
2018-01-13T08:55:50.898Z,1007.95
2018-01-13T08:56:50.884Z,1007.95
2018-01-13T08:57:50.872Z,1007.97
2018-01-13T08:58:50.859Z,1007.98
2018-01-13T08:59:50.847Z,1007.98
2018-01-13T09:00:50.834Z,1008.02
2018-01-13T09:01:50.821Z,1008.00
2018-01-13T09:02:50.809Z,1008.01
2018-01-13T09:03:50.797Z,1007.99
2018-01-13T09:04:50.784Z,1008.05
2018-01-13T09:05:50.771Z,1008.04
2018-01-13T09:06:50.758Z,1008.04
2018-01-13T09:07:50.746Z,1008.04
2018-01-13T09:08:50.734Z,1008.05
2018-01-13T09:09:50.722Z,1008.05
2018-01-13T09:10:50.710Z,1008.00
2018-01-13T09:11:50.696Z,1008.06
2018-01-13T09:12:50.683Z,1008.05
2018-01-13T09:13:50.672Z,1008.08
2018-01-13T09:14:50.659Z,1008.07
2018-01-13T09:15:50.647Z,1008.06
2018-01-13T09:16:50.636Z,1008.05
2018-01-13T09:17:50.622Z,1008.08
2018-01-13T09:18:50.609Z,1008.07
2018-01-13T09:19:50.599Z,1008.06
2018-01-13T09:20:50.584Z,1008.09
2018-01-13T09:21:50.577Z,1008.08
2018-01-13T09:22:50.559Z,1008.06
2018-01-13T09:23:50.548Z,1008.09
2018-01-13T09:24:50.536Z,1008.09
2018-01-13T09:25:50.522Z,1008.11
2018-01-13T09:26:50.509Z,1008.09
2018-01-13T09:27:50.500Z,1008.11
2018-01-13T09:28:50.485Z,1008.08
2018-01-13T09:29:50.473Z,1008.09
2018-01-13T09:30:50.459Z,1008.07
2018-01-13T09:31:50.447Z,1008.09
2018-01-13T09:32:50.435Z,1008.06
2018-01-13T09:33:50.423Z,1008.05
2018-01-13T09:34:50.410Z,1008.11
2018-01-13T09:35:50.397Z,1008.11
2018-01-13T09:36:50.385Z,1008.15
2018-01-13T09:37:50.372Z,1008.13
2018-01-13T09:38:50.360Z,1008.09
2018-01-13T09:39:50.348Z,1008.09
2018-01-13T09:40:50.337Z,1008.04
2018-01-13T09:41:50.324Z,1008.07
2018-01-13T09:42:50.310Z,1008.10
2018-01-13T09:43:50.299Z,1008.06
2018-01-13T09:44:50.287Z,1008.04
2018-01-13T09:45:50.275Z,1008.07
2018-01-13T09:46:50.297Z,1008.07
2018-01-13T09:47:50.255Z,1008.08
2018-01-13T09:48:50.238Z,1008.07
2018-01-13T09:49:50.237Z,1008.06
2018-01-13T09:50:50.213Z,1008.10
2018-01-13T09:51:50.201Z,1008.06
2018-01-13T09:52:50.189Z,1008.03
2018-01-13T09:53:50.178Z,1008.08
2018-01-13T09:54:50.173Z,1008.04
2018-01-13T09:55:50.153Z,1008.16
2018-01-13T09:56:50.141Z,1008.16
2018-01-13T09:57:50.128Z,1008.19
2018-01-13T09:58:50.114Z,1008.22
2018-01-13T09:59:50.103Z,1008.21
2018-01-13T10:00:50.094Z,1008.24
2018-01-13T10:01:50.078Z,1008.23
2018-01-13T10:02:50.066Z,1008.29
2018-01-13T10:03:50.053Z,1008.25
2018-01-13T10:04:50.041Z,1008.27
2018-01-13T10:05:50.029Z,1008.26
2018-01-13T10:06:50.015Z,1008.25
2018-01-13T10:07:50.004Z,1008.31
2018-01-13T10:08:49.991Z,1008.26
2018-01-13T10:09:49.978Z,1008.28
2018-01-13T10:10:49.974Z,1008.28
2018-01-13T10:11:49.953Z,1008.21
2018-01-13T10:12:49.941Z,1008.27
2018-01-13T10:13:49.928Z,1008.23
2018-01-13T10:14:49.917Z,1008.23
2018-01-13T10:15:49.904Z,1008.24
2018-01-13T10:16:49.892Z,1008.17
2018-01-13T10:17:49.879Z,1008.21
2018-01-13T10:18:49.867Z,1008.19
2018-01-13T10:19:49.854Z,1008.21
2018-01-13T10:20:49.895Z,1008.20
2018-01-13T10:21:49.836Z,1008.22
2018-01-13T10:22:49.815Z,1008.24
2018-01-13T10:23:49.805Z,1008.22
2018-01-13T10:24:49.792Z,1008.26
2018-01-13T10:25:49.780Z,1008.23
2018-01-13T10:26:49.768Z,1008.29
2018-01-13T10:27:49.755Z,1008.21
2018-01-13T10:28:49.767Z,1008.22
2018-01-13T10:29:49.778Z,1008.23
2018-01-13T10:30:49.718Z,1008.21
2018-01-13T10:31:49.706Z,1008.22
2018-01-13T10:32:49.696Z,1008.18
2018-01-13T10:33:49.682Z,1008.16
2018-01-13T10:34:49.668Z,1008.16
2018-01-13T10:35:49.658Z,1008.15
2018-01-13T10:36:49.650Z,1008.17
2018-01-13T10:37:49.633Z,1008.18
2018-01-13T10:38:49.619Z,1008.18
2018-01-13T10:39:49.611Z,1008.18
2018-01-13T10:40:49.597Z,1008.14
2018-01-13T10:41:49.586Z,1008.11
2018-01-13T10:42:49.573Z,1008.11
2018-01-13T10:43:49.560Z,1008.16
2018-01-13T10:44:49.548Z,1008.12
2018-01-13T10:45:49.551Z,1008.08
2018-01-13T10:46:49.524Z,1008.03
2018-01-13T10:47:49.512Z,1008.13
2018-01-13T10:48:49.500Z,1008.10
2018-01-13T10:49:49.487Z,1008.08
2018-01-13T10:50:49.483Z,1008.08
2018-01-13T10:51:49.463Z,1008.03
2018-01-13T10:52:49.451Z,1008.10
2018-01-13T10:53:49.439Z,1008.09
2018-01-13T10:54:49.425Z,1008.05
2018-01-13T10:55:49.415Z,1008.04
2018-01-13T10:56:49.404Z,1008.00
2018-01-13T10:57:49.391Z,1007.96
2018-01-13T10:58:49.377Z,1007.99
2018-01-13T10:59:49.365Z,1007.96
2018-01-13T11:00:49.354Z,1007.97
2018-01-13T11:01:49.342Z,1007.94
2018-01-13T11:02:49.328Z,1007.95
2018-01-13T11:03:49.317Z,1007.97
2018-01-13T11:04:49.351Z,1007.94
2018-01-13T11:05:49.294Z,1007.93
2018-01-13T11:06:49.281Z,1007.95
2018-01-13T11:07:49.269Z,1007.93
2018-01-13T11:08:49.257Z,1007.94
2018-01-13T11:09:49.246Z,1007.91
2018-01-13T11:10:49.234Z,1007.87
2018-01-13T11:11:49.277Z,1007.86
2018-01-13T11:12:49.211Z,1007.92
2018-01-13T11:13:49.202Z,1007.88
2018-01-13T11:14:49.186Z,1007.83
2018-01-13T11:15:49.175Z,1007.87
2018-01-13T11:16:49.165Z,1007.87
2018-01-13T11:17:49.154Z,1007.94
2018-01-13T11:18:49.141Z,1007.90
2018-01-13T11:19:49.130Z,1007.88
2018-01-13T11:20:49.119Z,1007.89
2018-01-13T11:21:49.110Z,1007.87
2018-01-13T11:22:49.098Z,1007.81
2018-01-13T11:23:49.087Z,1007.82
2018-01-13T11:24:49.077Z,1007.79
2018-01-13T11:25:49.066Z,1007.78
2018-01-13T11:26:49.070Z,1007.75
2018-01-13T11:27:49.044Z,1007.77
2018-01-13T11:28:49.033Z,1007.75
2018-01-13T11:29:49.022Z,1007.74
2018-01-13T11:30:49.012Z,1007.73
2018-01-13T11:31:49.001Z,1007.68
2018-01-13T11:32:49.004Z,1007.68
2018-01-13T11:33:48.979Z,1007.66
2018-01-13T11:34:48.967Z,1007.65
2018-01-13T11:35:48.956Z,1007.60
2018-01-13T11:36:48.946Z,1007.61
2018-01-13T11:37:48.934Z,1007.57
2018-01-13T11:38:48.923Z,1007.56
2018-01-13T11:39:48.912Z,1007.54
2018-01-13T11:40:48.901Z,1007.56
2018-01-13T11:41:48.889Z,1007.56
2018-01-13T11:42:48.903Z,1007.57
2018-01-13T11:43:48.868Z,1007.58
2018-01-13T11:44:48.857Z,1007.60
2018-01-13T11:45:48.846Z,1007.61
2018-01-13T11:46:48.835Z,1007.55
2018-01-13T11:47:48.825Z,1007.58
2018-01-13T11:48:48.815Z,1007.54
2018-01-13T11:49:48.804Z,1007.54
2018-01-13T11:50:48.793Z,1007.52
2018-01-13T11:51:48.783Z,1007.52
2018-01-13T11:52:48.774Z,1007.52
2018-01-13T11:53:48.764Z,1007.50
2018-01-13T11:54:48.754Z,1007.51
2018-01-13T11:55:48.744Z,1007.50
2018-01-13T11:56:48.735Z,1007.54
2018-01-13T11:57:48.727Z,1007.45
2018-01-13T11:58:48.717Z,1007.38
2018-01-13T11:59:48.707Z,1007.38
2018-01-13T12:00:48.700Z,1007.40
2018-01-13T12:01:48.689Z,1007.38
2018-01-13T12:02:48.682Z,1007.38
2018-01-13T12:03:48.672Z,1007.37
2018-01-13T12:04:48.664Z,1007.36
2018-01-13T12:05:48.661Z,1007.43